createdAt,value
2019-03-22T00:02:22.946Z,2.40
2019-03-22T00:04:56.272Z,1.90
2019-03-22T00:07:29.133Z,1.57
2019-03-22T00:10:01.999Z,1.70
2019-03-22T00:12:34.539Z,1.43
2019-03-22T00:15:08.964Z,5.50
2019-03-22T00:17:41.791Z,1.60
2019-03-22T00:20:16.162Z,1.43
2019-03-22T00:22:48.768Z,1.40
2019-03-22T00:25:21.760Z,1.10
2019-03-22T00:27:54.206Z,1.60
2019-03-22T00:30:26.938Z,2.10
2019-03-22T00:32:59.781Z,2.13
2019-03-22T00:35:32.577Z,1.87
2019-03-22T00:38:05.484Z,1.70
2019-03-22T00:40:38.137Z,2.33
2019-03-22T00:43:11.950Z,2.53
2019-03-22T00:45:44.719Z,2.57
2019-03-22T00:48:17.668Z,3.33
2019-03-22T00:50:50.807Z,4.73
2019-03-22T00:53:23.584Z,3.33
2019-03-22T00:55:56.320Z,2.80
2019-03-22T00:58:28.813Z,3.03
2019-03-22T01:01:01.557Z,2.43
2019-03-22T01:03:35.514Z,2.63
2019-03-22T01:06:08.126Z,2.87
2019-03-22T01:08:41.001Z,2.60
2019-03-22T01:11:13.786Z,2.00
2019-03-22T01:13:46.481Z,2.33
2019-03-22T01:16:19.451Z,1.70
2019-03-22T01:18:51.904Z,2.17
2019-03-22T01:21:25.252Z,2.40
2019-03-22T01:23:59.839Z,1.67
2019-03-22T01:26:32.462Z,1.87
2019-03-22T01:29:05.225Z,2.30
2019-03-22T01:31:38.478Z,1.90
2019-03-22T01:34:11.589Z,2.30
2019-03-22T01:36:45.231Z,2.20
2019-03-22T01:39:17.834Z,1.83
2019-03-22T01:41:53.584Z,1.97
2019-03-22T01:44:26.371Z,2.10
2019-03-22T01:47:00.003Z,2.15
2019-03-22T01:49:32.568Z,2.30
2019-03-22T01:52:05.465Z,1.70
2019-03-22T01:54:38.753Z,2.07
2019-03-22T01:57:11.772Z,2.30
2019-03-22T01:59:44.748Z,4.33
2019-03-22T02:02:19.096Z,3.72
2019-03-22T02:04:52.796Z,1.98
2019-03-22T02:07:26.153Z,2.25
2019-03-22T02:10:00.866Z,5.67
2019-03-22T02:12:34.460Z,1.55
2019-03-22T02:15:09.780Z,2.00
2019-03-22T02:17:43.083Z,2.00
2019-03-22T02:20:17.999Z,1.73
2019-03-22T02:22:52.674Z,2.10
2019-03-22T02:25:25.742Z,2.90
2019-03-22T02:28:04.069Z,4.85
2019-03-22T02:30:33.703Z,2.87
2019-03-22T02:33:06.772Z,1.70
2019-03-22T02:35:39.405Z,1.82
2019-03-22T02:38:12.458Z,1.70
2019-03-22T02:40:45.223Z,2.40
2019-03-22T02:43:19.974Z,1.70
2019-03-22T02:45:53.243Z,1.90
2019-03-22T02:48:26.839Z,1.90
2019-03-22T02:50:59.754Z,2.70
2019-03-22T02:53:33.472Z,1.85
2019-03-22T02:56:06.969Z,2.30
2019-03-22T02:58:39.999Z,2.23
2019-03-22T03:01:13.052Z,5.60
2019-03-22T03:03:47.318Z,4.93
2019-03-22T03:06:20.188Z,2.47
2019-03-22T03:08:53.179Z,2.30
2019-03-22T03:11:25.967Z,1.80
2019-03-22T03:13:58.787Z,3.43
2019-03-22T03:16:31.930Z,2.10
2019-03-22T03:19:04.928Z,3.80
2019-03-22T03:21:38.019Z,2.23
2019-03-22T03:24:10.734Z,2.60
2019-03-22T03:26:46.000Z,2.57
2019-03-22T03:29:18.751Z,2.60
2019-03-22T03:31:51.909Z,7.27
2019-03-22T03:34:24.718Z,2.80
2019-03-22T03:36:57.725Z,2.87
2019-03-22T03:39:31.118Z,2.90
2019-03-22T03:42:03.969Z,3.13
2019-03-22T03:44:37.311Z,3.03
2019-03-22T03:47:10.650Z,5.60
2019-03-22T03:49:44.772Z,2.93
2019-03-22T03:52:17.597Z,2.97
2019-03-22T03:54:50.745Z,3.10
2019-03-22T03:57:23.958Z,2.67
2019-03-22T03:59:56.710Z,2.93
2019-03-22T04:02:29.737Z,4.93
2019-03-22T04:05:02.415Z,2.70
2019-03-22T04:07:35.568Z,3.37
2019-03-22T04:10:09.401Z,2.73
2019-03-22T04:12:42.841Z,4.10
2019-03-22T04:15:15.931Z,3.57
2019-03-22T04:17:49.115Z,3.83
2019-03-22T04:20:21.722Z,5.07
2019-03-22T04:22:54.581Z,6.30
2019-03-22T04:25:27.590Z,4.07
2019-03-22T04:28:01.410Z,4.83
2019-03-22T04:30:33.992Z,3.80
2019-03-22T04:33:07.451Z,4.33
2019-03-22T04:35:42.753Z,5.80
2019-03-22T04:38:15.756Z,3.43
2019-03-22T04:40:48.512Z,7.30
2019-03-22T04:43:21.486Z,3.10
2019-03-22T04:45:55.878Z,3.27
2019-03-22T04:48:34.636Z,3.43
2019-03-22T04:51:08.205Z,3.00
2019-03-22T04:53:43.032Z,3.37
2019-03-22T04:56:17.856Z,2.97
2019-03-22T04:58:52.480Z,3.20
2019-03-22T05:01:26.236Z,6.10
2019-03-22T05:04:00.289Z,3.03
2019-03-22T05:06:35.131Z,4.40
2019-03-22T05:09:10.373Z,4.47
2019-03-22T05:11:44.615Z,4.50
2019-03-22T05:14:18.101Z,4.30
2019-03-22T05:16:53.551Z,5.77
2019-03-22T05:19:28.664Z,3.03
2019-03-22T05:22:03.582Z,3.13
2019-03-22T05:24:38.386Z,3.53
2019-03-22T05:27:12.033Z,3.30
2019-03-22T05:29:46.810Z,3.43
2019-03-22T05:32:19.733Z,6.27
2019-03-22T05:34:52.742Z,5.67
2019-03-22T05:37:25.431Z,3.30
2019-03-22T05:39:58.098Z,2.73
2019-03-22T05:42:30.873Z,2.90
2019-03-22T05:45:03.460Z,5.10
2019-03-22T05:47:36.902Z,3.70
2019-03-22T05:50:10.224Z,4.20
2019-03-22T05:52:43.185Z,2.77
2019-03-22T05:55:16.454Z,3.00
2019-03-22T05:57:49.349Z,2.37
2019-03-22T06:00:22.285Z,9.23
2019-03-22T06:02:55.367Z,2.77
2019-03-22T06:05:28.017Z,4.73
2019-03-22T06:08:00.879Z,2.40
2019-03-22T06:10:33.809Z,3.93
2019-03-22T06:13:06.618Z,2.93
2019-03-22T06:15:39.538Z,2.60
2019-03-22T06:18:12.399Z,2.60
2019-03-22T06:20:47.100Z,3.37
2019-03-22T06:23:19.687Z,4.60
2019-03-22T06:25:52.545Z,3.40
2019-03-22T06:28:25.384Z,3.00
2019-03-22T06:30:58.341Z,2.80
2019-03-22T06:33:31.051Z,2.50
2019-03-22T06:36:03.816Z,9.07
2019-03-22T06:38:37.683Z,3.47
2019-03-22T06:41:10.383Z,2.80
2019-03-22T06:43:43.161Z,6.00
2019-03-22T06:46:15.837Z,2.70
2019-03-22T06:48:49.352Z,2.43
2019-03-22T06:51:22.017Z,2.87
2019-03-22T06:53:55.503Z,5.03
2019-03-22T06:56:28.233Z,4.37
2019-03-22T06:59:03.437Z,3.57
2019-03-22T07:01:36.220Z,3.63
2019-03-22T07:04:09.168Z,2.87
2019-03-22T07:06:41.912Z,3.90
2019-03-22T07:09:15.142Z,3.30
2019-03-22T07:11:48.883Z,6.33
2019-03-22T07:14:21.925Z,5.43
2019-03-22T07:16:54.720Z,7.17
2019-03-22T07:19:27.849Z,4.37
2019-03-22T07:22:00.844Z,5.63
2019-03-22T07:24:33.619Z,7.33
2019-03-22T07:27:05.959Z,11.40
2019-03-22T07:29:39.022Z,5.90
2019-03-22T07:32:11.850Z,10.13
2019-03-22T07:34:45.558Z,7.20
2019-03-22T07:37:18.145Z,4.27
2019-03-22T07:39:50.760Z,3.53
2019-03-22T07:42:23.568Z,3.60
2019-03-22T07:44:56.594Z,4.10
2019-03-22T07:47:29.444Z,4.90
2019-03-22T07:50:03.258Z,4.43
2019-03-22T07:52:36.158Z,3.47
2019-03-22T07:55:09.509Z,4.33
2019-03-22T07:57:45.303Z,3.90
2019-03-22T08:00:29.910Z,4.50
2019-03-22T08:02:52.163Z,3.80
2019-03-22T08:05:24.897Z,4.10
2019-03-22T08:07:57.830Z,5.13
2019-03-22T08:10:31.071Z,3.97
2019-03-22T08:13:03.714Z,5.10
2019-03-22T08:15:36.501Z,4.23
2019-03-22T08:18:15.948Z,6.43
2019-03-22T08:20:48.548Z,4.20
2019-03-22T08:23:22.411Z,7.23
2019-03-22T08:25:55.682Z,4.83
2019-03-22T08:28:28.315Z,5.00
2019-03-22T08:31:01.289Z,4.20
2019-03-22T08:33:34.081Z,5.30
2019-03-22T08:36:06.514Z,4.17
2019-03-22T08:38:40.329Z,4.20
2019-03-22T08:41:13.042Z,5.37
2019-03-22T08:43:45.890Z,4.37
2019-03-22T08:46:18.629Z,5.20
2019-03-22T08:48:53.298Z,6.43
2019-03-22T08:51:26.300Z,4.40
2019-03-22T08:53:59.759Z,3.57
2019-03-22T08:56:32.163Z,4.40
2019-03-22T08:59:05.313Z,3.27
2019-03-22T09:01:37.835Z,3.37
2019-03-22T09:04:10.959Z,3.23
2019-03-22T09:06:43.311Z,2.00
2019-03-22T09:09:16.202Z,3.30
2019-03-22T09:11:49.712Z,3.47
2019-03-22T09:14:23.869Z,5.83
2019-03-22T09:16:56.326Z,6.33
2019-03-22T09:19:29.035Z,3.63
2019-03-22T09:22:01.663Z,2.57
2019-03-22T09:24:39.354Z,3.03
2019-03-22T09:27:08.563Z,3.63
2019-03-22T09:29:41.358Z,4.13
2019-03-22T09:32:14.034Z,4.00
2019-03-22T09:34:46.950Z,3.87
2019-03-22T09:37:19.936Z,4.27
2019-03-22T09:39:53.036Z,5.30
2019-03-22T09:42:25.889Z,3.23
2019-03-22T09:44:58.846Z,3.87
2019-03-22T09:47:31.865Z,3.70
2019-03-22T09:50:04.922Z,3.20
2019-03-22T09:52:38.012Z,4.00
2019-03-22T09:55:13.709Z,5.53
2019-03-22T09:57:45.155Z,4.60
2019-03-22T10:00:32.607Z,4.83
2019-03-22T10:03:05.776Z,5.23
2019-03-22T10:05:38.600Z,5.83
2019-03-22T10:08:11.268Z,5.87
2019-03-22T10:10:44.027Z,4.40
2019-03-22T10:13:17.202Z,5.40
2019-03-22T10:15:50.253Z,6.77
2019-03-22T10:18:23.454Z,4.83
2019-03-22T10:20:56.548Z,4.17
2019-03-22T10:23:29.757Z,5.80
2019-03-22T10:26:02.952Z,3.97
2019-03-22T10:28:35.563Z,6.13
2019-03-22T10:31:09.021Z,4.97
2019-03-22T10:33:41.768Z,4.27
2019-03-22T10:36:14.720Z,4.10
2019-03-22T10:38:50.343Z,4.53
2019-03-22T10:41:22.359Z,9.40
2019-03-22T10:43:55.049Z,4.47
2019-03-22T10:46:27.982Z,5.17
2019-03-22T10:49:01.027Z,4.97
2019-03-22T10:51:34.010Z,4.13
2019-03-22T10:54:07.214Z,4.20
2019-03-22T10:56:40.116Z,5.83
2019-03-22T10:59:12.988Z,4.23
2019-03-22T11:01:52.329Z,5.10
2019-03-22T11:04:19.431Z,4.03
2019-03-22T11:06:52.430Z,4.97
2019-03-22T11:09:25.118Z,4.37
2019-03-22T11:11:57.900Z,6.30
2019-03-22T11:14:30.463Z,4.37
2019-03-22T11:17:04.167Z,4.03
2019-03-22T11:19:36.999Z,4.20
2019-03-22T11:22:10.034Z,4.37
2019-03-22T11:24:42.622Z,3.97
2019-03-22T11:27:15.047Z,5.43
2019-03-22T11:29:48.947Z,4.37
2019-03-22T11:32:42.460Z,5.13
2019-03-22T11:35:15.255Z,6.90
2019-03-22T11:37:47.969Z,5.00
2019-03-22T11:40:21.457Z,4.30
2019-03-22T11:42:54.188Z,4.60
2019-03-22T11:45:39.216Z,5.30
2019-03-22T11:48:15.892Z,4.83
2019-03-22T11:50:57.794Z,4.83
2019-03-22T11:53:33.543Z,5.07
2019-03-22T11:56:06.382Z,6.07
2019-03-22T11:58:38.954Z,7.10
2019-03-22T12:01:19.420Z,5.03
2019-03-22T12:03:46.111Z,6.77
2019-03-22T12:06:18.724Z,5.50
2019-03-22T12:08:51.701Z,4.87
2019-03-22T12:11:24.200Z,7.33
2019-03-22T12:13:56.939Z,5.67
2019-03-22T12:16:29.769Z,5.40
2019-03-22T12:19:03.471Z,8.20
2019-03-22T12:21:36.237Z,5.17
2019-03-22T12:24:09.024Z,6.53
2019-03-22T12:26:42.970Z,4.67
2019-03-22T12:29:28.199Z,6.87
2019-03-22T12:32:01.389Z,5.33
2019-03-22T12:34:34.090Z,7.77
2019-03-22T12:37:07.468Z,6.47
2019-03-22T12:39:41.816Z,6.40
2019-03-22T12:42:14.530Z,5.30
2019-03-22T12:44:47.469Z,5.13
2019-03-22T12:47:20.470Z,7.00
2019-03-22T12:49:53.034Z,7.43
2019-03-22T12:52:26.018Z,4.80
2019-03-22T12:54:59.010Z,5.30
2019-03-22T12:57:31.599Z,4.97
2019-03-22T13:00:04.843Z,4.67
2019-03-22T13:02:42.239Z,6.00
2019-03-22T13:05:12.550Z,5.77
2019-03-22T13:07:45.266Z,5.40
2019-03-22T13:10:34.323Z,4.20
2019-03-22T13:13:06.985Z,5.47
2019-03-22T13:16:03.996Z,5.37
2019-03-22T13:18:36.757Z,5.50
2019-03-22T13:21:09.727Z,5.20
2019-03-22T13:23:42.900Z,4.50
2019-03-22T13:26:15.571Z,5.50
2019-03-22T13:28:48.565Z,7.57
2019-03-22T13:31:21.570Z,5.07
2019-03-22T13:33:54.603Z,4.70
2019-03-22T13:36:27.649Z,6.10
2019-03-22T13:39:01.556Z,5.17
2019-03-22T13:41:34.126Z,4.90
2019-03-22T13:44:06.870Z,6.27
2019-03-22T13:46:40.492Z,4.93
2019-03-22T13:49:13.530Z,4.60
2019-03-22T13:51:46.364Z,5.67
2019-03-22T13:54:20.044Z,4.70
2019-03-22T13:56:53.072Z,5.57
2019-03-22T13:59:58.516Z,5.80
2019-03-22T14:02:31.339Z,10.50
2019-03-22T14:05:03.989Z,5.47
2019-03-22T14:07:37.081Z,5.70
2019-03-22T14:10:11.567Z,5.17
2019-03-22T14:12:44.511Z,5.57
2019-03-22T14:15:17.519Z,8.73
2019-03-22T14:17:51.267Z,6.23
2019-03-22T14:20:24.103Z,5.80
2019-03-22T14:22:57.181Z,5.37
2019-03-22T14:25:30.071Z,6.00
2019-03-22T14:28:03.216Z,7.00
2019-03-22T14:30:36.199Z,6.20
2019-03-22T14:33:13.198Z,9.33
2019-03-22T14:35:43.256Z,3.90
2019-03-22T14:38:16.238Z,4.63
2019-03-22T14:40:49.996Z,4.40
2019-03-22T14:43:22.681Z,4.40
2019-03-22T14:45:55.784Z,10.33
2019-03-22T14:48:28.474Z,4.77
2019-03-22T14:51:01.371Z,5.30
2019-03-22T14:53:34.428Z,8.40
2019-03-22T14:56:09.052Z,8.80
2019-03-22T14:58:42.003Z,4.73
2019-03-22T15:01:15.171Z,8.47
2019-03-22T15:03:48.150Z,6.20
2019-03-22T15:06:22.347Z,6.80
2019-03-22T15:08:55.056Z,5.90
2019-03-22T15:11:28.175Z,5.90
2019-03-22T15:14:02.355Z,5.07
2019-03-22T15:16:45.856Z,4.47
2019-03-22T15:19:26.194Z,4.80
2019-03-22T15:22:16.270Z,6.13
2019-03-22T15:24:59.354Z,7.07
2019-03-22T15:27:45.492Z,9.80
2019-03-22T15:30:34.975Z,4.63
2019-03-22T15:33:34.054Z,4.83
2019-03-22T15:36:34.914Z,4.00
2019-03-22T15:39:26.203Z,4.60
2019-03-22T15:42:00.377Z,6.37
2019-03-22T15:44:33.330Z,4.67
2019-03-22T15:47:06.509Z,5.43
2019-03-22T15:49:39.509Z,5.77
2019-03-22T15:52:12.631Z,6.60
2019-03-22T15:54:45.617Z,5.03
2019-03-22T15:57:19.209Z,4.23
2019-03-22T15:59:53.145Z,5.03
2019-03-22T16:02:26.223Z,4.50
2019-03-22T16:04:59.418Z,4.73
2019-03-22T16:07:32.436Z,4.20
2019-03-22T16:10:05.597Z,5.17
2019-03-22T16:12:38.475Z,4.47
2019-03-22T16:15:13.437Z,4.00
2019-03-22T16:17:46.408Z,5.17
2019-03-22T16:20:19.499Z,7.87
2019-03-22T16:22:52.630Z,14.47
2019-03-22T16:25:25.569Z,5.20
2019-03-22T16:27:58.749Z,5.70
2019-03-22T16:30:31.548Z,6.63
2019-03-22T16:33:07.434Z,4.30
2019-03-22T16:35:40.392Z,6.87
2019-03-22T16:38:13.791Z,4.90
2019-03-22T16:40:46.615Z,4.33
2019-03-22T16:43:19.420Z,7.57
2019-03-22T16:45:52.340Z,11.80
2019-03-22T16:48:25.523Z,6.53
2019-03-22T16:50:58.513Z,4.53
2019-03-22T16:53:31.762Z,4.37
2019-03-22T16:56:04.579Z,4.73
2019-03-22T16:58:39.015Z,4.27
2019-03-22T17:01:12.186Z,4.63
2019-03-22T17:03:45.216Z,4.27
2019-03-22T17:06:17.953Z,3.87
2019-03-22T17:08:50.931Z,4.00
2019-03-22T17:11:23.835Z,5.13
2019-03-22T17:13:56.686Z,4.00
2019-03-22T17:16:29.958Z,3.60
2019-03-22T17:19:02.668Z,6.73
2019-03-22T17:21:35.671Z,4.60
2019-03-22T17:24:08.564Z,5.07
2019-03-22T17:26:41.962Z,4.27
2019-03-22T17:29:14.951Z,4.37
2019-03-22T17:31:47.936Z,5.87
2019-03-22T17:34:20.761Z,3.40
2019-03-22T17:36:53.842Z,4.60
2019-03-22T17:39:26.672Z,7.87
2019-03-22T17:41:59.900Z,4.90
2019-03-22T17:44:33.079Z,5.67
2019-03-22T17:47:06.059Z,4.57
2019-03-22T17:49:47.725Z,4.10
2019-03-22T17:52:13.257Z,4.33
2019-03-22T17:54:46.458Z,3.77
2019-03-22T17:57:19.424Z,4.03
2019-03-22T17:59:52.431Z,8.87
2019-03-22T18:02:25.382Z,4.10
2019-03-22T18:04:58.911Z,6.50
2019-03-22T18:07:31.791Z,4.90
2019-03-22T18:10:04.963Z,3.57
2019-03-22T18:12:37.761Z,4.50
2019-03-22T18:15:12.006Z,4.50
2019-03-22T18:17:44.981Z,6.00
2019-03-22T18:20:19.190Z,8.77
2019-03-22T18:22:52.052Z,7.20
2019-03-22T18:25:25.056Z,8.77
2019-03-22T18:27:57.932Z,8.90
2019-03-22T18:30:31.168Z,9.77
2019-03-22T18:33:04.110Z,9.93
2019-03-22T18:35:37.918Z,6.03
2019-03-22T18:38:10.782Z,12.00
2019-03-22T18:40:43.867Z,8.17
2019-03-22T18:43:16.671Z,16.93
2019-03-22T18:45:49.866Z,20.23
2019-03-22T18:48:22.860Z,17.80
2019-03-22T18:50:56.988Z,13.83
2019-03-22T18:53:30.459Z,21.57
2019-03-22T18:56:03.199Z,14.27
2019-03-22T18:58:36.409Z,17.07
2019-03-22T19:01:09.609Z,16.93
2019-03-22T19:03:42.433Z,9.23
2019-03-22T19:06:15.828Z,16.77
2019-03-22T19:08:48.822Z,14.13
2019-03-22T19:11:21.838Z,21.63
2019-03-22T19:13:54.804Z,13.00
2019-03-22T19:16:28.004Z,9.27
2019-03-22T19:19:00.919Z,7.90
2019-03-22T19:21:33.921Z,7.77
2019-03-22T19:24:51.878Z,8.73
2019-03-22T19:27:24.784Z,10.60
2019-03-22T19:29:58.060Z,7.90
2019-03-22T19:32:30.812Z,9.00
2019-03-22T19:35:03.876Z,9.97
2019-03-22T19:37:36.719Z,10.73
2019-03-22T19:40:14.402Z,11.37
2019-03-22T19:42:47.400Z,9.73
2019-03-22T19:45:20.976Z,10.37
2019-03-22T19:47:53.986Z,10.30
2019-03-22T19:50:27.261Z,10.30
2019-03-22T19:53:00.169Z,17.83
2019-03-22T19:55:33.289Z,10.93
2019-03-22T19:58:06.339Z,19.63
2019-03-22T20:00:39.360Z,17.10
2019-03-22T20:03:12.396Z,19.90
2019-03-22T20:05:45.305Z,19.10
2019-03-22T20:08:18.493Z,25.93
2019-03-22T20:10:51.479Z,28.40
2019-03-22T20:13:24.673Z,29.20
2019-03-22T20:15:57.661Z,24.23
2019-03-22T20:18:30.834Z,21.27
2019-03-22T20:21:03.806Z,22.63
2019-03-22T20:23:36.990Z,21.20
2019-03-22T20:26:09.796Z,23.53
2019-03-22T20:28:42.790Z,25.60
2019-03-22T20:31:16.383Z,19.53
2019-03-22T20:33:49.398Z,20.80
2019-03-22T20:36:22.355Z,23.70
2019-03-22T20:38:55.747Z,17.90
2019-03-22T20:41:28.732Z,22.17
2019-03-22T20:44:01.869Z,14.33
2019-03-22T20:46:34.632Z,17.97
2019-03-22T20:49:07.984Z,16.20
2019-03-22T20:51:40.835Z,12.80
2019-03-22T20:54:13.868Z,13.50
2019-03-22T20:56:47.203Z,16.40
2019-03-22T20:59:20.319Z,14.77
2019-03-22T21:01:53.504Z,13.07
2019-03-22T21:04:26.587Z,17.40
2019-03-22T21:06:59.573Z,13.90
2019-03-22T21:09:32.633Z,12.83
2019-03-22T21:12:05.661Z,11.23
2019-03-22T21:14:38.715Z,10.83
2019-03-22T21:17:11.631Z,9.77
2019-03-22T21:19:44.347Z,12.10
2019-03-22T21:22:17.615Z,11.83
2019-03-22T21:24:50.548Z,10.27
2019-03-22T21:27:24.343Z,9.13
2019-03-22T21:29:57.072Z,8.03
2019-03-22T21:32:29.948Z,10.20
2019-03-22T21:35:02.758Z,10.80
2019-03-22T21:37:35.878Z,12.00
2019-03-22T21:40:09.434Z,11.80
2019-03-22T21:42:42.330Z,10.57
2019-03-22T21:45:15.131Z,11.37
2019-03-22T21:47:48.183Z,9.63
2019-03-22T21:50:21.112Z,10.20
2019-03-22T21:52:53.939Z,9.80
2019-03-22T21:55:26.758Z,9.80
2019-03-22T21:57:59.704Z,8.70
2019-03-22T22:00:33.132Z,9.17
2019-03-22T22:03:06.496Z,7.40
2019-03-22T22:05:47.406Z,8.30
2019-03-22T22:08:13.550Z,11.40
2019-03-22T22:10:46.399Z,7.93
2019-03-22T22:13:19.522Z,7.50
2019-03-22T22:15:52.150Z,7.43
2019-03-22T22:18:25.222Z,7.60
2019-03-22T22:20:57.790Z,6.97
2019-03-22T22:23:31.590Z,8.30
2019-03-22T22:26:04.522Z,6.50
2019-03-22T22:28:37.112Z,6.60
2019-03-22T22:31:10.861Z,6.73
2019-03-22T22:33:43.668Z,7.53
2019-03-22T22:36:16.497Z,7.23
2019-03-22T22:38:49.590Z,6.20
2019-03-22T22:41:23.330Z,5.93
2019-03-22T22:43:55.782Z,6.67
2019-03-22T22:46:28.683Z,7.00
2019-03-22T22:49:01.383Z,6.60
2019-03-22T22:51:34.880Z,6.30
2019-03-22T22:54:07.559Z,6.30
2019-03-22T22:56:41.324Z,6.30
2019-03-22T22:59:13.954Z,6.30
2019-03-22T23:01:46.825Z,6.50
2019-03-22T23:04:19.649Z,6.07
2019-03-22T23:06:52.426Z,6.10
2019-03-22T23:09:26.602Z,5.90
2019-03-22T23:11:59.202Z,5.27
2019-03-22T23:14:31.933Z,4.20
2019-03-22T23:17:04.660Z,4.83
2019-03-22T23:19:37.443Z,4.30
2019-03-22T23:22:09.867Z,6.50
2019-03-22T23:24:42.793Z,5.53
2019-03-22T23:27:15.340Z,5.77
2019-03-22T23:29:48.709Z,5.90
2019-03-22T23:32:21.339Z,5.60
2019-03-22T23:34:58.909Z,4.90
2019-03-22T23:37:28.644Z,4.63
2019-03-22T23:40:01.210Z,4.60
2019-03-22T23:42:34.690Z,5.40
2019-03-22T23:45:08.741Z,3.77
2019-03-22T23:47:41.344Z,4.70
2019-03-22T23:50:14.342Z,8.10
2019-03-22T23:52:48.117Z,5.23
2019-03-22T23:55:20.677Z,5.37
2019-03-22T23:57:54.450Z,6.53
